Página principal
METAR-TAF:

METAR-TAF

Aeroportos :

Aeroporto Internacional de Chhatrapati Shivaji

Bombaim, Índia

latitude: 19-07N, longitude: 072-51E, altura: 8 m

Observação actual do tempo

O boletim foi feito há 29 minutos, às 22:30 UTC
Vento calmo
Temperatura 22°C
Humidade 65%
Pressão 1014 hPa
Visibilidade: 3500 m
fumo

METAR: VABB 152230Z 00000KT 3500 FU NSC 22/15 Q1014 BECMG 3000 FU

Hora: 04:29 (22:59 UTC)

Previsão

O boletim foi feito há 2 horas e 59 minutos, às 20:00 UTC
Previsão válida de 15 às 21 UTC a 16 às 06 UTC
Vento 3 kt com direcção variável
Visibilidade: 2000 m
bruma, fumo
Tornando-se
de 16 às 03 UTC a 16 às 05 UTC
Vento 6 kt de nor-noroeste
Visibilidade: 3000 m
fumo

TAF: VABB 152000Z 1521/1606 VRB03KT 2000 HZ FU NSC BECMG 1603/1605 34006KT 3000 FU

Observações e previsões do tempo de mais de 4000 aeroportos (mensagens METAR e TAF).

As estações disponíveis são os pontos amarelos e vermelhos sobre o mapa.

Mova o rato sobre o mapa para ver o nome da estação.

Depois clique no ponto para visualizar as observações e previsões meteorológicas.

Para alterar o mapa : clique nos botões verdes com uma cruz preta para aumentar o zoom; no botão verde com uma pitada de zoom; ou nas setas verdes para mapas adjacentes.


METAR-TAF: